Time;durP1;ratioP1;P1;durP2;ratioP2;P2;SDS_P1;SDS_P2;PMS_P1;PMS_P2;Temp;Humidity;BMP_temperature;BMP_pressure;BME280_temperature;BME280_humidity;BME280_pressure;Samples;Min_cycle;Max_cycle;Signal;HPM_P1;HPM_P2
2022/03/14 00:01:24;;;;;;;22.00;12.33;;;8.30;52.10;;;;;;5072132;28;20426;-58
2022/03/14 00:03:55;;;;;;;23.10;11.50;;;8.30;50.40;;;;;;5088239;28;20413;-58
2022/03/14 00:06:21;;;;;;;21.35;12.10;;;8.50;52.10;;;;;;5092388;28;20859;-58
2022/03/14 00:08:47;;;;;;;24.20;12.55;;;8.50;52.70;;;;;;5092881;28;20367;-58
2022/03/14 00:11:15;;;;;;;26.83;13.02;;;8.60;52.80;;;;;;5092711;28;20760;-57
2022/03/14 00:13:46;;;;;;;25.17;13.32;;;8.40;54.10;;;;;;5072251;28;20430;-58
2022/03/14 00:16:25;;;;;;;23.83;13.73;;;8.20;53.30;;;;;;5072526;28;20439;-58
2022/03/14 00:18:53;;;;;;;22.50;12.70;;;8.10;52.70;;;;;;5072470;28;20414;-58
2022/03/14 00:21:20;;;;;;;27.73;14.07;;;8.30;53.20;;;;;;5054016;28;20753;-57
2022/03/14 00:23:46;;;;;;;27.23;14.63;;;8.40;53.00;;;;;;5088827;28;20435;-57
2022/03/14 00:26:12;;;;;;;28.80;15.07;;;8.50;52.80;;;;;;5092570;28;20907;-58
2022/03/14 00:28:38;;;;;;;27.40;14.90;;;8.40;53.00;;;;;;5091846;28;20638;-58
2022/03/14 00:31:03;;;;;;;26.60;14.50;;;8.20;54.40;;;;;;5092338;28;20738;-58
2022/03/14 00:33:29;;;;;;;26.70;14.98;;;8.10;55.00;;;;;;5073321;28;20386;-58
2022/03/14 00:35:56;;;;;;;26.00;14.17;;;8.10;55.20;;;;;;5092233;28;20385;-58
2022/03/14 00:38:24;;;;;;;25.45;13.85;;;8.20;54.10;;;;;;5073602;28;20469;-58
2022/03/14 00:40:51;;;;;;;24.30;13.82;;;8.30;53.30;;;;;;5092263;28;20393;-58
2022/03/14 00:43:17;;;;;;;27.50;14.93;;;8.60;53.50;;;;;;5092123;28;20401;-58
2022/03/14 00:45:42;;;;;;;25.13;14.60;;;8.90;54.10;;;;;;5091563;28;20431;-58
2022/03/14 00:48:08;;;;;;;26.90;14.83;;;8.70;53.80;;;;;;5092122;28;20402;-58
2022/03/14 00:50:34;;;;;;;25.27;14.20;;;8.80;54.70;;;;;;5091394;28;20435;-58
2022/03/14 00:52:59;;;;;;;22.63;13.63;;;7.20;53.70;;;;;;5092602;28;20389;-58
2022/03/14 00:55:25;;;;;;;24.33;13.65;;;8.80;54.70;;;;;;5091279;28;20526;-58
2022/03/14 00:57:51;;;;;;;22.60;12.63;;;8.90;53.80;;;;;;5092169;28;20385;-59
2022/03/14 01:00:17;;;;;;;25.57;13.90;;;9.10;53.90;;;;;;5091919;28;20428;-58
2022/03/14 01:02:43;;;;;;;29.88;13.98;;;9.50;54.10;;;;;;5091274;28;20385;-58
2022/03/14 01:05:09;;;;;;;24.05;13.60;;;9.70;53.80;;;;;;5091865;28;20374;-58
2022/03/14 01:07:35;;;;;;;24.45;13.77;;;9.80;53.60;;;;;;5091272;28;20415;-58
2022/03/14 01:10:04;;;;;;;25.38;13.15;;;9.80;53.50;;;;;;5091916;28;20410;-58
2022/03/14 01:12:30;;;;;;;24.00;13.95;;;9.90;53.80;;;;;;5091091;28;20410;-58
2022/03/14 01:14:56;;;;;;;25.97;14.00;;;9.90;54.30;;;;;;5091544;28;20799;-58
2022/03/14 01:17:22;;;;;;;28.17;14.50;;;9.80;55.80;;;;;;5090944;28;20847;-59
2022/03/14 01:19:47;;;;;;;42.30;14.20;;;9.60;60.00;;;;;;5091350;28;20402;-58
2022/03/14 01:22:13;;;;;;;28.35;13.57;;;9.60;84.80;;;;;;5091656;28;20374;-58
2022/03/14 01:24:39;;;;;;;26.73;12.53;;;9.70;99.90;;;;;;5090878;28;20883;-57
2022/03/14 01:27:07;;;;;;;22.63;11.25;;;9.70;99.90;;;;;;5091363;28;21138;-58
2022/03/14 01:29:34;;;;;;;21.92;10.88;;;9.70;99.90;;;;;;5090744;28;20374;-57
2022/03/14 01:32:03;;;;;;;23.00;10.93;;;9.80;99.90;;;;;;5091556;28;20389;-58
2022/03/14 01:34:29;;;;;;;18.02;11.10;;;9.80;99.90;;;;;;5090712;28;20378;-58
2022/03/14 01:36:55;;;;;;;19.48;9.65;;;9.80;99.90;;;;;;5091497;28;20461;-58
2022/03/14 01:39:21;;;;;;;15.70;9.53;;;9.80;99.90;;;;;;5072601;28;20385;-58
2022/03/14 01:41:47;;;;;;;17.33;9.88;;;9.90;99.90;;;;;;5091110;28;20435;-58
2022/03/14 01:44:12;;;;;;;16.00;9.10;;;9.80;99.90;;;;;;5091077;28;20404;-59
2022/03/14 01:46:38;;;;;;;20.95;7.90;;;9.80;99.90;;;;;;5089991;28;20390;-58
2022/03/14 01:49:04;;;;;;;12.57;6.37;;;9.80;99.90;;;;;;5090784;28;20451;-58
2022/03/14 01:51:30;;;;;;;11.20;6.22;;;9.90;99.90;;;;;;5090178;28;20859;-58
2022/03/14 01:53:57;;;;;;;11.40;4.50;;;9.80;99.90;;;;;;5090891;28;20366;-58
2022/03/14 01:56:23;;;;;;;8.93;3.80;;;9.70;99.90;;;;;;5072007;28;20444;-58
2022/03/14 01:58:52;;;;;;;8.77;3.78;;;9.70;99.90;;;;;;5090556;28;20382;-58
2022/03/14 02:01:19;;;;;;;7.63;3.60;;;9.70;99.90;;;;;;5090619;28;20952;-58
2022/03/14 02:03:44;;;;;;;8.65;3.65;;;9.60;99.90;;;;;;5089763;28;20404;-58
2022/03/14 02:06:10;;;;;;;8.00;3.60;;;9.60;99.90;;;;;;5090953;28;20461;-58
2022/03/14 02:08:36;;;;;;;8.07;3.70;;;9.60;99.90;;;;;;5090050;28;20382;-58
2022/03/14 02:11:02;;;;;;;7.50;3.45;;;9.50;99.90;;;;;;5090610;28;20418;-58
2022/03/14 02:13:28;;;;;;;7.32;3.22;;;9.50;99.90;;;;;;5089703;28;20379;-58
2022/03/14 02:15:54;;;;;;;7.50;3.33;;;9.50;99.90;;;;;;5090380;28;20450;-58
2022/03/14 02:18:19;;;;;;;6.20;2.50;;;9.50;99.90;;;;;;5090410;28;20477;-58
2022/03/14 02:20:45;;;;;;;6.37;2.70;;;9.40;99.90;;;;;;5089955;28;20468;-58
2022/03/14 02:23:11;;;;;;;7.53;2.50;;;9.40;99.90;;;;;;5090564;28;20402;-58
2022/03/14 02:25:52;;;;;;;7.03;3.15;;;9.30;99.90;;;;;;5089652;28;20400;-58
2022/03/14 02:28:21;;;;;;;7.32;3.00;;;9.30;99.90;;;;;;5090435;28;20442;-59
2022/03/14 02:30:47;;;;;;;6.45;2.72;;;9.40;99.90;;;;;;5090154;28;20448;-58
2022/03/14 02:33:13;;;;;;;5.70;2.20;;;9.30;99.90;;;;;;5089885;28;20385;-58
2022/03/14 02:35:43;;;;;;;5.43;2.33;;;9.20;99.90;;;;;;5089444;28;21053;-59
2022/03/14 02:38:14;;;;;;;5.93;2.42;;;9.10;99.90;;;;;;5090164;28;20382;-58
2022/03/14 02:40:47;;;;;;;5.60;2.00;;;8.90;99.90;;;;;;5089398;28;20394;-57
2022/03/14 02:43:15;;;;;;;5.40;2.08;;;8.90;99.90;;;;;;5089747;28;20402;-58
2022/03/14 02:45:47;;;;;;;6.80;2.20;;;9.00;99.90;;;;;;5089215;28;20436;-56
2022/03/14 02:48:13;;;;;;;5.53;2.30;;;8.90;99.90;;;;;;5084930;28;20414;-57
2022/03/14 02:50:42;;;;;;;5.40;2.25;;;9.00;99.90;;;;;;5068785;28;20380;-56
2022/03/14 02:53:12;;;;;;;5.95;2.55;;;8.90;99.90;;;;;;5090354;28;20392;-57
2022/03/14 02:55:40;;;;;;;6.22;2.47;;;8.90;99.90;;;;;;5075865;28;20379;-59
2022/03/14 02:58:06;;;;;;;5.60;2.50;;;9.00;99.90;;;;;;5071623;28;20376;-59
2022/03/14 03:00:32;;;;;;;6.40;2.60;;;9.00;99.90;;;;;;5068901;28;20380;-59
2022/03/14 03:02:59;;;;;;;7.40;2.90;;;9.10;99.90;;;;;;5069735;28;20452;-59
2022/03/14 03:05:25;;;;;;;5.90;2.70;;;9.10;99.90;;;;;;5068881;28;20808;-58
2022/03/14 03:07:50;;;;;;;6.03;2.75;;;9.00;99.90;;;;;;5086936;28;20418;-59
2022/03/14 03:10:19;;;;;;;6.37;2.70;;;9.10;99.90;;;;;;5089935;28;20389;-58
2022/03/14 03:12:45;;;;;;;5.90;2.90;;;9.10;99.90;;;;;;5089228;28;20473;-58
2022/03/14 03:15:14;;;;;;;5.90;3.10;;;9.00;99.90;;;;;;5092512;28;20490;-58
2022/03/14 03:17:39;;;;;;;7.00;2.70;;;9.00;99.90;;;;;;5092979;28;20374;-58
2022/03/14 03:20:06;;;;;;;6.40;2.83;;;8.90;99.90;;;;;;5094023;28;20492;-58
2022/03/14 03:22:31;;;;;;;6.72;3.30;;;8.90;99.90;;;;;;5093104;28;20385;-58
2022/03/14 03:24:57;;;;;;;6.18;2.75;;;8.80;99.90;;;;;;5093754;28;20421;-57
2022/03/14 03:27:23;;;;;;;7.27;3.23;;;8.80;99.90;;;;;;5093550;28;20423;-58
2022/03/14 03:29:48;;;;;;;7.43;3.00;;;8.80;99.90;;;;;;5093440;28;20428;-57
2022/03/14 03:32:14;;;;;;;7.30;3.10;;;8.80;99.90;;;;;;5084407;28;20380;-58
2022/03/14 03:34:40;;;;;;;7.07;3.10;;;8.80;99.90;;;;;;5072862;28;21278;-57
2022/03/14 03:37:12;;;;;;;5.50;2.88;;;8.80;99.90;;;;;;5073510;28;20384;-57
2022/03/14 03:39:37;;;;;;;5.80;2.85;;;8.90;99.90;;;;;;5072768;28;20396;-58
2022/03/14 03:42:03;;;;;;;7.00;3.50;;;8.90;99.90;;;;;;5073537;28;20843;-58
2022/03/14 03:44:29;;;;;;;6.80;3.40;;;9.00;99.90;;;;;;5072273;28;20413;-58
2022/03/14 03:46:55;;;;;;;7.38;3.60;;;9.10;99.90;;;;;;5073191;28;20391;-58
2022/03/14 03:49:21;;;;;;;7.20;3.85;;;9.00;99.90;;;;;;5073353;28;20884;-59
2022/03/14 03:51:47;;;;;;;6.30;3.30;;;9.00;99.90;;;;;;5079579;28;20402;-56
2022/03/14 03:54:12;;;;;;;7.00;3.40;;;9.00;99.90;;;;;;5093222;28;20390;-58
2022/03/14 03:56:38;;;;;;;6.43;3.10;;;9.10;99.90;;;;;;5085445;28;20411;-59
2022/03/14 03:59:04;;;;;;;5.93;3.10;;;9.10;99.90;;;;;;5072708;28;20380;-57
2022/03/14 04:01:30;;;;;;;6.93;3.67;;;9.20;99.90;;;;;;5072215;28;20501;-56
2022/03/14 04:03:58;;;;;;;6.70;3.33;;;9.10;99.90;;;;;;5072950;28;20411;-56
2022/03/14 04:06:30;;;;;;;6.63;3.27;;;9.10;99.90;;;;;;5072358;28;20380;-57
2022/03/14 04:09:00;;;;;;;6.80;3.00;;;9.20;99.90;;;;;;5072939;28;20425;-58
2022/03/14 04:11:26;;;;;;;6.50;3.00;;;9.20;99.90;;;;;;5092395;28;20370;-57
2022/03/14 04:13:53;;;;;;;6.70;3.40;;;9.20;99.90;;;;;;5093056;28;20382;-58
2022/03/14 04:16:22;;;;;;;7.43;3.65;;;9.20;99.90;;;;;;5092867;28;20805;-59
2022/03/14 04:18:48;;;;;;;6.20;3.28;;;9.20;99.90;;;;;;5092270;28;20405;-56
2022/03/14 04:21:15;;;;;;;7.85;3.60;;;9.10;99.90;;;;;;5092860;28;20433;-59
2022/03/14 04:23:41;;;;;;;6.95;3.65;;;9.10;99.90;;;;;;5091937;28;20445;-56
2022/03/14 04:26:07;;;;;;;6.97;3.80;;;9.00;99.90;;;;;;5092391;28;20505;-57
2022/03/14 04:28:36;;;;;;;7.47;3.88;;;9.10;99.90;;;;;;5092029;28;20374;-56
2022/03/14 04:31:05;;;;;;;7.70;3.90;;;9.20;99.90;;;;;;5087715;28;20406;-58
2022/03/14 04:33:31;;;;;;;6.85;3.53;;;9.30;99.90;;;;;;5092235;28;20481;-58
2022/03/14 04:35:57;;;;;;;7.40;3.50;;;9.20;99.90;;;;;;5092703;28;20915;-58
2022/03/14 04:38:27;;;;;;;7.70;3.50;;;9.20;99.90;;;;;;5092125;28;20380;-59
2022/03/14 04:40:53;;;;;;;7.87;3.70;;;9.10;99.90;;;;;;5087326;28;20427;-59
2022/03/14 04:43:21;;;;;;;6.70;3.70;;;9.00;99.90;;;;;;5086097;28;20441;-59
2022/03/14 04:45:47;;;;;;;7.50;3.80;;;8.90;99.90;;;;;;5079665;28;20399;-58
2022/03/14 04:48:13;;;;;;;7.65;3.67;;;8.80;99.90;;;;;;5079939;28;20930;-58
2022/03/14 04:50:39;;;;;;;7.93;3.80;;;8.70;99.90;;;;;;5074102;28;20394;-58
2022/03/14 04:53:06;;;;;;;8.47;4.20;;;8.70;99.90;;;;;;5082642;28;20438;-58
2022/03/14 04:55:34;;;;;;;7.10;3.80;;;8.70;99.90;;;;;;5076925;28;20467;-59
2022/03/14 04:58:00;;;;;;;7.32;3.60;;;8.80;99.90;;;;;;5079487;28;20396;-58
2022/03/14 05:00:28;;;;;;;9.00;4.20;;;8.80;99.90;;;;;;5043026;28;20808;-58
2022/03/14 05:03:00;;;;;;;6.60;3.80;;;9.10;99.90;;;;;;5076145;28;20441;-58
2022/03/14 05:05:26;;;;;;;7.65;3.60;;;9.00;99.90;;;;;;5077169;28;20403;-58
2022/03/14 05:07:52;;;;;;;8.40;3.85;;;9.00;99.90;;;;;;5090199;28;20402;-59
2022/03/14 05:10:18;;;;;;;7.18;3.10;;;9.00;99.90;;;;;;5091552;28;20430;-58
2022/03/14 05:12:43;;;;;;;6.53;3.30;;;9.00;99.90;;;;;;5090793;28;20378;-58
2022/03/14 05:15:09;;;;;;;6.53;3.10;;;9.00;99.90;;;;;;5065552;28;20804;-58
2022/03/14 05:17:35;;;;;;;6.40;3.30;;;9.10;99.90;;;;;;5071254;28;20390;-58
2022/03/14 05:20:01;;;;;;;6.63;3.30;;;9.10;99.90;;;;;;5091354;28;20429;-58
2022/03/14 05:22:27;;;;;;;6.82;3.25;;;9.10;99.90;;;;;;5090777;28;20490;-58
2022/03/14 05:24:52;;;;;;;6.53;3.30;;;9.00;99.90;;;;;;5090070;28;20411;-59
2022/03/14 05:27:18;;;;;;;6.38;3.40;;;8.90;99.90;;;;;;5089407;28;20382;-58
2022/03/14 05:29:44;;;;;;;8.10;3.40;;;8.70;99.90;;;;;;5075494;28;20438;-58
2022/03/14 05:32:09;;;;;;;7.60;3.60;;;8.60;99.90;;;;;;5065909;28;20833;-58
2022/03/14 05:34:35;;;;;;;7.05;3.70;;;8.70;99.90;;;;;;5073690;28;20388;-58
2022/03/14 05:37:02;;;;;;;7.53;3.22;;;8.60;99.90;;;;;;5069850;28;20376;-58
2022/03/14 05:39:27;;;;;;;9.15;3.50;;;8.50;99.90;;;;;;5074325;28;20904;-58
2022/03/14 05:41:54;;;;;;;7.20;2.90;;;8.50;99.90;;;;;;5074455;28;20404;-57
2022/03/14 05:44:20;;;;;;;6.80;2.67;;;8.40;99.90;;;;;;5070247;28;20412;-58
2022/03/14 05:46:45;;;;;;;6.80;2.60;;;8.40;99.90;;;;;;5074823;28;20547;-58
2022/03/14 05:49:11;;;;;;;6.65;2.50;;;8.50;99.90;;;;;;5083447;28;20413;-58
2022/03/14 05:51:38;;;;;;;5.60;2.37;;;8.50;99.90;;;;;;5078241;28;20405;-59
2022/03/14 05:54:05;;;;;;;7.70;2.15;;;8.40;99.90;;;;;;5085189;28;20804;-58
2022/03/14 05:56:31;;;;;;;7.93;2.47;;;8.40;99.90;;;;;;5087219;28;20887;-58
2022/03/14 05:58:58;;;;;;;5.65;2.72;;;8.30;99.90;;;;;;5081427;28;20395;-57
2022/03/14 06:01:23;;;;;;;5.50;2.00;;;8.30;99.90;;;;;;5081447;28;20390;-57
2022/03/14 06:03:50;;;;;;;6.00;1.60;;;8.30;99.90;;;;;;5085972;28;20405;-57
2022/03/14 06:06:16;;;;;;;4.20;1.30;;;8.20;99.90;;;;;;5085574;28;20771;-57
2022/03/14 06:08:42;;;;;;;5.73;1.30;;;8.20;99.90;;;;;;5071702;28;20408;-57
2022/03/14 06:11:07;;;;;;;5.75;1.13;;;8.20;99.90;;;;;;5085181;28;20390;-57
2022/03/14 06:13:33;;;;;;;5.40;0.90;;;9.30;99.90;;;;;;5083572;28;20716;-57
2022/03/14 06:15:59;;;;;;;8.05;1.80;;;8.00;99.90;;;;;;5087104;28;20479;-57
2022/03/14 06:18:25;;;;;;;4.70;1.10;;;8.00;99.90;;;;;;5081605;28;20738;-57
2022/03/14 06:20:51;;;;;;;4.63;0.98;;;5.80;99.90;;;;;;5059773;28;20386;-58
2022/03/14 06:23:16;;;;;;;6.10;1.20;;;8.00;99.90;;;;;;5082896;28;20851;-57
2022/03/14 06:25:42;;;;;;;6.55;1.40;;;8.10;99.90;;;;;;5078026;28;20667;-57
2022/03/14 06:28:10;;;;;;;8.85;1.38;;;8.00;99.90;;;;;;5077685;28;20460;-57
2022/03/14 06:30:35;;;;;;;7.68;1.48;;;8.10;99.90;;;;;;5076753;28;20481;-57
2022/03/14 06:33:01;;;;;;;7.33;1.10;;;8.10;99.90;;;;;;5071630;28;20489;-57
2022/03/14 06:35:27;;;;;;;8.35;1.40;;;8.10;99.90;;;;;;5073886;28;21257;-57
2022/03/14 06:37:53;;;;;;;4.83;1.13;;;8.20;99.90;;;;;;5089092;28;20394;-57
2022/03/14 06:40:18;;;;;;;5.38;1.30;;;8.20;99.90;;;;;;5089362;28;20751;-57
2022/03/14 06:42:49;;;;;;;7.20;1.07;;;8.30;99.90;;;;;;5088746;28;20374;-57
2022/03/14 06:45:20;;;;;;;7.80;1.48;;;8.60;99.90;;;;;;5089986;28;20374;-57
2022/03/14 06:47:46;;;;;;;6.35;1.17;;;9.30;99.90;;;;;;5089306;28;21168;-57
2022/03/14 06:50:13;;;;;;;9.47;1.40;;;10.40;99.90;;;;;;5089454;28;20386;-57
2022/03/14 06:52:38;;;;;;;7.80;1.45;;;11.00;99.90;;;;;;5089024;28;20473;-57
2022/03/14 06:55:05;;;;;;;8.20;1.50;;;11.10;99.90;;;;;;5089982;28;20458;-57
2022/03/14 06:57:31;;;;;;;6.60;1.50;;;10.70;99.90;;;;;;5088961;28;20370;-57
2022/03/14 06:59:57;;;;;;;6.95;1.40;;;10.60;99.90;;;;;;5089595;28;20370;-57
2022/03/14 07:02:27;;;;;;;10.23;1.45;;;10.80;99.90;;;;;;5071817;28;20946;-57
2022/03/14 07:04:53;;;;;;;5.93;1.50;;;11.70;99.90;;;;;;5078526;28;20441;-57
2022/03/14 07:07:18;;;;;;;7.17;1.70;;;12.60;99.90;;;;;;5079033;28;20425;-57
2022/03/14 07:09:44;;;;;;;8.35;1.40;;;13.40;99.90;;;;;;5083295;28;20380;-58
2022/03/14 07:12:11;;;;;;;7.60;1.10;;;13.60;99.90;;;;;;5069190;28;20379;-57
2022/03/14 07:14:37;;;;;;;9.23;1.30;;;14.10;99.90;;;;;;5061575;28;20382;-57
2022/03/14 07:17:02;;;;;;;8.00;1.30;;;13.90;99.90;;;;;;5089507;28;20791;-57
2022/03/14 07:19:28;;;;;;;7.70;1.33;;;13.90;99.90;;;;;;5088510;28;20405;-58
2022/03/14 07:21:54;;;;;;;10.75;1.42;;;14.30;99.90;;;;;;5089130;28;20393;-57
2022/03/14 07:24:20;;;;;;;9.07;1.90;;;14.60;99.90;;;;;;5069335;28;20411;-57
2022/03/14 07:26:45;;;;;;;7.07;1.48;;;14.50;99.90;;;;;;5068188;28;20879;-58
2022/03/14 07:29:11;;;;;;;8.00;1.40;;;14.70;99.90;;;;;;5076771;28;20855;-57
2022/03/14 07:31:37;;;;;;;9.70;2.07;;;14.70;99.90;;;;;;5085244;28;20390;-57
2022/03/14 07:34:04;;;;;;;5.82;1.20;;;14.80;99.80;;;;;;5087845;28;20431;-57
2022/03/14 07:36:30;;;;;;;7.18;1.63;;;13.70;98.90;;;;;;5087740;28;20389;-57
2022/03/14 07:38:56;;;;;;;8.20;1.50;;;13.80;99.90;;;;;;5089065;28;20386;-57
2022/03/14 07:41:23;;;;;;;7.18;1.75;;;14.20;99.20;;;;;;5089002;28;20386;-57
2022/03/14 07:43:48;;;;;;;8.30;1.37;;;14.80;99.20;;;;;;5088547;28;20410;-57
2022/03/14 07:46:14;;;;;;;5.70;1.30;;;14.60;97.70;;;;;;5089200;28;20748;-57
2022/03/14 07:48:40;;;;;;;7.73;2.10;;;14.80;97.30;;;;;;5088794;28;20870;-57
2022/03/14 07:51:08;;;;;;;5.97;1.50;;;15.30;97.00;;;;;;5089181;28;20386;-57
2022/03/14 07:53:34;;;;;;;6.80;1.10;;;14.90;95.90;;;;;;5088524;28;20405;-58
2022/03/14 07:55:59;;;;;;;6.85;1.70;;;15.40;95.50;;;;;;5089188;28;20782;-57
2022/03/14 07:58:25;;;;;;;7.68;1.30;;;15.10;95.30;;;;;;5088824;28;20374;-58
2022/03/14 08:00:51;;;;;;;9.52;1.70;;;14.80;96.00;;;;;;5089863;28;20420;-57
2022/03/14 08:03:20;;;;;;;9.40;1.60;;;14.40;96.30;;;;;;5092917;28;20401;-57
2022/03/14 08:05:47;;;;;;;7.50;1.60;;;13.50;97.40;;;;;;5091975;28;20402;-57
2022/03/14 08:08:15;;;;;;;6.50;1.30;;;12.80;99.00;;;;;;5092825;28;20846;-57
2022/03/14 08:10:41;;;;;;;7.25;1.20;;;12.40;99.80;;;;;;5092285;28;20370;-57
2022/03/14 08:13:07;;;;;;;4.93;1.20;;;13.00;99.40;;;;;;5091993;28;20851;-57
2022/03/14 08:15:36;;;;;;;5.68;1.20;;;12.80;99.20;;;;;;5071897;28;20383;-57
2022/03/14 08:18:07;;;;;;;8.13;1.10;;;12.20;99.90;;;;;;5072274;28;20414;-57
2022/03/14 08:20:37;;;;;;;6.20;1.00;;;11.40;99.90;;;;;;5071158;28;20400;-57
2022/03/14 08:23:04;;;;;;;8.27;1.35;;;11.50;99.90;;;;;;5071789;28;20407;-57
2022/03/14 08:25:32;;;;;;;5.17;1.00;;;11.50;99.90;;;;;;5071800;28;20380;-58
2022/03/14 08:27:58;;;;;;;5.07;0.90;;;11.40;99.90;;;;;;5072739;28;20395;-57
2022/03/14 08:30:24;;;;;;;6.43;1.30;;;11.20;99.90;;;;;;5054403;28;20392;-57
2022/03/14 08:32:51;;;;;;;8.52;1.10;;;11.20;99.90;;;;;;5071754;28;20372;-57
2022/03/14 08:35:20;;;;;;;7.60;1.30;;;11.40;99.90;;;;;;5072177;28;20384;-57
2022/03/14 08:37:48;;;;;;;5.78;1.00;;;11.40;99.90;;;;;;5071150;28;20376;-57
2022/03/14 08:40:17;;;;;;;6.75;1.15;;;11.70;99.90;;;;;;5072051;28;20407;-57
2022/03/14 08:42:44;;;;;;;6.10;1.25;;;12.00;99.90;;;;;;5071360;28;20467;-57
2022/03/14 08:45:10;;;;;;;7.45;1.60;;;12.40;99.90;;;;;;5072337;28;20815;-57
2022/03/14 08:47:36;;;;;;;6.88;1.52;;;12.80;99.60;;;;;;5071390;28;20380;-57
2022/03/14 08:50:04;;;;;;;8.52;1.38;;;12.40;99.90;;;;;;5071598;28;20444;-57
2022/03/14 08:52:31;;;;;;;6.20;1.10;;;12.00;99.90;;;;;;5052961;28;20409;-57
2022/03/14 08:54:58;;;;;;;6.70;1.40;;;11.90;99.90;;;;;;5072102;28;20415;-58
2022/03/14 08:57:24;;;;;;;6.05;1.20;;;14.00;96.80;;;;;;5053596;28;20733;-58
2022/03/14 08:59:50;;;;;;;6.70;1.70;;;14.20;96.80;;;;;;5071273;28;20384;-58
2022/03/14 09:02:15;;;;;;;5.53;1.20;;;14.80;93.10;;;;;;5071751;28;20845;-58
2022/03/14 09:04:41;;;;;;;7.10;1.20;;;14.50;92.60;;;;;;5070954;28;20440;-58
2022/03/14 09:07:08;;;;;;;5.82;1.30;;;15.60;92.30;;;;;;5071559;28;20437;-58
2022/03/14 09:09:34;;;;;;;7.30;1.20;;;15.70;88.50;;;;;;5053129;28;20379;-57
2022/03/14 09:12:03;;;;;;;8.73;1.25;;;13.80;90.00;;;;;;5070453;28;20918;-56
2022/03/14 09:14:31;;;;;;;5.67;0.90;;;13.30;91.70;;;;;;5082943;28;20404;-58
2022/03/14 09:16:58;;;;;;;7.13;1.40;;;12.40;92.60;;;;;;5091863;28;20386;-58
2022/03/14 09:19:25;;;;;;;6.57;1.10;;;12.30;93.00;;;;;;5073308;28;20413;-58
2022/03/14 09:21:57;;;;;;;7.35;1.10;;;11.90;93.70;;;;;;5090899;28;20375;-58
2022/03/14 09:24:24;;;;;;;6.93;1.42;;;11.60;95.00;;;;;;5074384;28;20402;-58
2022/03/14 09:26:50;;;;;;;6.10;1.00;;;11.90;94.80;;;;;;5091063;28;20393;-58
2022/03/14 09:29:17;;;;;;;6.13;0.90;;;11.80;95.30;;;;;;5091746;28;20538;-56
2022/03/14 09:31:42;;;;;;;7.53;1.20;;;12.40;95.80;;;;;;5090580;28;20478;-57
2022/03/14 09:34:08;;;;;;;6.17;1.10;;;14.20;94.80;;;;;;5073387;28;20569;-58
2022/03/14 09:36:33;;;;;;;6.30;1.40;;;15.30;90.50;;;;;;5091058;28;20378;-58
2022/03/14 09:38:59;;;;;;;8.50;1.75;;;16.00;86.30;;;;;;5091329;28;20390;-59
2022/03/14 09:41:29;;;;;;;5.90;1.40;;;16.30;84.90;;;;;;5091589;28;20382;-58
2022/03/14 09:43:59;;;;;;;8.18;1.33;;;16.90;84.30;;;;;;5072749;28;20409;-57
2022/03/14 09:46:27;;;;;;;7.15;1.20;;;17.90;82.20;;;;;;5091219;28;20412;-57
2022/03/14 09:48:56;;;;;;;6.30;1.05;;;18.60;76.60;;;;;;5090734;28;20390;-57
2022/03/14 09:51:23;;;;;;;6.25;1.10;;;18.60;69.00;;;;;;5091061;28;20378;-57
2022/03/14 09:53:50;;;;;;;6.72;1.65;;;18.70;71.10;;;;;;5089946;28;20463;-57
2022/03/14 09:56:16;;;;;;;11.13;1.90;;;18.60;67.20;;;;;;5091010;28;20401;-57
2022/03/14 09:58:44;;;;;;;4.50;0.93;;;18.20;68.00;;;;;;5090115;28;20847;-57
2022/03/14 10:01:11;;;;;;;5.87;1.20;;;18.60;66.50;;;;;;5072641;28;20415;-57
2022/03/14 10:03:37;;;;;;;7.30;1.40;;;18.50;65.70;;;;;;5089981;28;20406;-57
2022/03/14 10:06:02;;;;;;;7.35;1.30;;;18.80;67.00;;;;;;5090714;28;20431;-57
2022/03/14 10:08:28;;;;;;;6.53;1.20;;;18.40;61.10;;;;;;5090280;28;20370;-57
2022/03/14 10:10:54;;;;;;;5.93;1.27;;;18.10;64.10;;;;;;5090445;28;20840;-57
2022/03/14 10:13:19;;;;;;;8.13;1.33;;;18.50;63.60;;;;;;5088040;28;20743;-57
2022/03/14 10:15:45;;;;;;;6.90;1.60;;;17.90;63.10;;;;;;5069675;28;20810;-57
2022/03/14 10:18:13;;;;;;;6.23;1.40;;;18.90;61.50;;;;;;5070256;28;20408;-57
2022/03/14 10:20:55;;;;;;;6.60;3.30;;;19.70;59.50;;;;;;5069036;28;20454;-57
2022/03/14 10:23:48;;;;;;;8.13;5.00;;;20.50;59.10;;;;;;5069598;28;20399;-57
2022/03/14 10:26:19;;;;;;;7.50;5.18;;;21.00;57.00;;;;;;5066821;28;20482;-58
2022/03/14 10:28:49;;;;;;;9.93;5.20;;;21.00;56.40;;;;;;5069292;28;20470;-58
2022/03/14 10:31:26;;;;;;;7.45;4.72;;;20.10;55.00;;;;;;5070202;28;20398;-57
2022/03/14 10:33:56;;;;;;;7.47;4.70;;;19.70;57.00;;;;;;5069010;28;20407;-58
2022/03/14 10:36:49;;;;;;;7.57;4.38;;;18.80;55.40;;;;;;5070243;28;20393;-58
2022/03/14 10:39:16;;;;;;;6.07;3.97;;;19.10;55.00;;;;;;5069803;28;20508;-57
2022/03/14 10:41:46;;;;;;;6.45;1.40;;;18.60;53.40;;;;;;5069334;28;20818;-57
2022/03/14 10:44:23;;;;;;;5.70;1.38;;;18.10;56.50;;;;;;5069682;28;20407;-57
2022/03/14 10:46:48;;;;;;;9.02;1.13;;;18.20;57.40;;;;;;5068926;28;20668;-58
2022/03/14 10:49:15;;;;;;;6.13;1.50;;;18.00;56.80;;;;;;5070266;28;21164;-57
2022/03/14 10:51:54;;;;;;;6.40;1.20;;;17.70;57.90;;;;;;5069113;28;20429;-58
2022/03/14 10:54:20;;;;;;;5.93;1.30;;;16.70;58.80;;;;;;5069504;28;20391;-57
2022/03/14 10:57:09;;;;;;;7.05;1.30;;;17.20;59.80;;;;;;5068712;28;20865;-57
2022/03/14 10:59:46;;;;;;;5.90;1.30;;;16.60;58.80;;;;;;5068955;28;20433;-57
2022/03/14 11:02:17;;;;;;;7.68;1.30;;;16.00;58.50;;;;;;5069588;28;20734;-58
2022/03/14 11:04:53;;;;;;;7.07;1.20;;;16.10;62.40;;;;;;5068914;28;20411;-57
2022/03/14 11:07:23;;;;;;;5.77;1.30;;;16.40;59.70;;;;;;5069778;28;20400;-58
2022/03/14 11:09:51;;;;;;;5.70;1.00;;;17.70;56.70;;;;;;5050690;28;20383;-58
2022/03/14 11:12:19;;;;;;;6.57;1.25;;;17.70;55.50;;;;;;5069581;28;20380;-57
2022/03/14 11:14:53;;;;;;;7.90;1.10;;;17.90;56.10;;;;;;5082846;28;20877;-57
2022/03/14 11:17:32;;;;;;;7.47;1.60;;;18.90;56.40;;;;;;5089498;28;20374;-58
2022/03/14 11:19:59;;;;;;;5.97;1.20;;;19.10;56.20;;;;;;5088916;28;20415;-58
2022/03/14 11:22:27;;;;;;;7.78;1.40;;;19.30;55.00;;;;;;5089242;28;20389;-58
2022/03/14 11:24:58;;;;;;;6.60;1.00;;;19.40;53.80;;;;;;5088519;28;20437;-57
2022/03/14 11:27:30;;;;;;;6.90;1.75;;;19.30;54.90;;;;;;5089322;28;20403;-58
2022/03/14 11:30:06;;;;;;;5.63;1.00;;;18.90;55.90;;;;;;5088774;28;20379;-57
2022/03/14 11:32:33;;;;;;;6.03;1.00;;;18.40;55.40;;;;;;5088613;28;20381;-57
2022/03/14 11:35:01;;;;;;;6.10;1.10;;;18.30;56.20;;;;;;5089782;28;20731;-58
2022/03/14 11:37:29;;;;;;;5.43;1.30;;;18.50;56.30;;;;;;5093384;28;20422;-57
2022/03/14 11:40:01;;;;;;;5.90;1.08;;;18.50;55.50;;;;;;5092969;28;20424;-57
2022/03/14 11:42:27;;;;;;;4.60;0.83;;;18.40;55.60;;;;;;5093280;28;20418;-57
2022/03/14 11:44:54;;;;;;;5.50;1.10;;;18.40;55.50;;;;;;5092434;28;20448;-57
2022/03/14 11:47:21;;;;;;;6.07;1.30;;;18.20;56.30;;;;;;5093215;28;20386;-57
2022/03/14 11:49:48;;;;;;;5.10;0.90;;;17.50;56.30;;;;;;5092099;28;20393;-57
2022/03/14 11:52:19;;;;;;;5.28;0.90;;;17.00;56.50;;;;;;5093287;28;20374;-57
2022/03/14 11:54:51;;;;;;;4.95;1.10;;;16.40;56.70;;;;;;5092498;28;20450;-59
2022/03/14 11:57:36;;;;;;;5.05;1.00;;;16.50;58.00;;;;;;5093064;28;20388;-59
2022/03/14 12:00:21;;;;;;;4.97;1.10;;;16.50;57.90;;;;;;5092902;28;20386;-59
2022/03/14 12:02:47;;;;;;;4.95;0.90;;;16.60;59.40;;;;;;5092224;28;20839;-59
2022/03/14 12:05:13;;;;;;;6.68;1.40;;;16.70;60.30;;;;;;5092926;28;20427;-60
2022/03/14 12:07:38;;;;;;;5.03;0.90;;;17.40;59.20;;;;;;5092502;28;20876;-58
2022/03/14 12:10:29;;;;;;;8.20;1.00;;;17.70;58.30;;;;;;5093097;28;20423;-58
2022/03/14 12:12:56;;;;;;;6.15;1.30;;;17.70;57.00;;;;;;5091853;28;20374;-57
2022/03/14 12:15:45;;;;;;;5.53;1.25;;;17.80;57.60;;;;;;5072975;28;20457;-58
2022/03/14 12:18:26;;;;;;;8.65;1.63;;;17.30;57.60;;;;;;5072348;28;20475;-59
2022/03/14 12:20:56;;;;;;;5.72;1.23;;;16.80;58.80;;;;;;5071702;28;20475;-60
2022/03/14 12:23:24;;;;;;;5.22;1.10;;;17.00;58.60;;;;;;5072497;28;20412;-58
2022/03/14 12:25:50;;;;;;;7.05;2.13;;;17.40;58.40;;;;;;5071492;28;20388;-57
2022/03/14 12:28:31;;;;;;;6.40;1.20;;;17.60;57.60;;;;;;5071885;28;20710;-58
2022/03/14 12:31:13;;;;;;;5.75;1.08;;;17.80;57.80;;;;;;5071350;28;20880;-57
2022/03/14 12:33:47;;;;;;;5.97;1.00;;;17.50;57.60;;;;;;5071322;28;20380;-57
2022/03/14 12:36:22;;;;;;;8.10;1.45;;;17.30;57.70;;;;;;5072128;28;20391;-59
2022/03/14 12:39:21;;;;;;;6.65;1.30;;;17.40;59.00;;;;;;5071273;28;20743;-59
2022/03/14 12:41:46;;;;;;;6.45;1.40;;;17.30;58.50;;;;;;5071111;28;20941;-59
2022/03/14 12:44:22;;;;;;;6.97;1.40;;;17.40;58.00;;;;;;5071438;28;20483;-58
2022/03/14 12:46:58;;;;;;;5.25;1.20;;;17.70;57.90;;;;;;5070838;28;20379;-58
2022/03/14 12:49:39;;;;;;;5.90;1.10;;;17.40;57.90;;;;;;5071760;28;20395;-58
2022/03/14 12:52:15;;;;;;;4.78;1.10;;;17.40;57.30;;;;;;5071602;28;20380;-58
2022/03/14 12:54:43;;;;;;;8.10;1.38;;;17.40;57.90;;;;;;5071123;28;20387;-58